Time;durP1;ratioP1;P1;durP2;ratioP2;P2;SDS_P1;SDS_P2;PMS_P1;PMS_P2;Temp;Humidity;BMP_temperature;BMP_pressure;BME280_temperature;BME280_humidity;BME280_pressure;Samples;Min_cycle;Max_cycle;Signal;HPM_P1;HPM_P2
2022/09/28 00:01:01;;;;;;;;;;;;;;;21.97;66.99;99598.28;7406396;19;1456;-67
2022/09/28 00:03:30;;;;;;;;;;;;;;;21.94;67.07;99590.56;7406687;19;1605;-68
2022/09/28 00:06:05;;;;;;;;;;;;;;;21.93;66.88;99595.09;7407053;19;1300;-68
2022/09/28 00:08:33;;;;;;;;;;;;;;;21.96;66.89;99601.97;7406785;19;1293;-68
2022/09/28 00:11:02;;;;;;;;;;;;;;;21.93;67.21;99599.66;7403906;19;1905;-68
2022/09/28 00:13:32;;;;;;;;;;;;;;;21.97;67.09;99600.97;7406321;19;1542;-68
2022/09/28 00:16:01;;;;;;;;;;;;;;;21.96;66.98;99585.81;7406269;19;1379;-68
2022/09/28 00:18:29;;;;;;;;;;;;;;;21.98;66.96;99581.09;7406092;19;1431;-68
2022/09/28 00:21:08;;;;;;;;;;;;;;;21.95;67.11;99578.78;7405731;19;1268;-68
2022/09/28 00:24:11;;;;;;;;;;;;;;;21.99;66.96;99582.78;7405978;19;1387;-67
2022/09/28 00:26:25;;;;;;;;;;;;;;;21.99;66.82;99594.38;7404176;19;1597;-68
2022/09/28 00:28:53;;;;;;;;;;;;;;;21.98;66.92;99564.94;7404760;19;1585;-67
2022/09/28 00:31:22;;;;;;;;;;;;;;;21.97;67.25;99568.66;7403830;19;1851;-67
2022/09/28 00:33:51;;;;;;;;;;;;;;;21.96;66.97;99564.28;7405089;19;1507;-59
2022/09/28 00:36:22;;;;;;;;;;;;;;;21.98;67.01;99570.31;7405446;19;1580;-59
2022/09/28 00:38:51;;;;;;;;;;;;;;;21.95;67.08;99560.75;7404131;19;1705;-58
2022/09/28 00:41:19;;;;;;;;;;;;;;;21.95;66.78;99552.69;7405328;19;1561;-58
2022/09/28 00:43:47;;;;;;;;;;;;;;;21.98;66.98;99565.75;7405432;19;1371;-58
2022/09/28 00:46:19;;;;;;;;;;;;;;;21.97;67.02;99561.41;7404829;19;1655;-58
2022/09/28 00:48:51;;;;;;;;;;;;;;;21.91;67.12;99564.03;7404557;19;1412;-58
2022/09/28 00:51:22;;;;;;;;;;;;;;;21.93;66.89;99556.59;7403016;19;1857;-59
2022/09/28 00:53:52;;;;;;;;;;;;;;;21.90;67.06;99563.16;7405598;19;1304;-58
2022/09/28 00:56:22;;;;;;;;;;;;;;;21.94;66.85;99560.94;7404488;19;1475;-58
2022/09/28 00:58:53;;;;;;;;;;;;;;;21.93;67.15;99567.34;7403841;19;1577;-58
2022/09/28 01:01:21;;;;;;;;;;;;;;;22.14;66.38;99564.75;7403380;19;1474;-58
2022/09/28 01:03:50;;;;;;;;;;;;;;;22.53;65.37;99557.44;7404738;19;1362;-58
2022/09/28 01:06:19;;;;;;;;;;;;;;;22.44;65.81;99570.16;7404833;19;1478;-58
2022/09/28 01:08:52;;;;;;;;;;;;;;;22.38;65.89;99554.75;7405905;19;1292;-59
2022/09/28 01:11:20;;;;;;;;;;;;;;;22.81;64.57;99553.00;7402803;19;1854;-58
2022/09/28 01:13:51;;;;;;;;;;;;;;;22.87;64.60;99556.81;7403317;19;1546;-58
2022/09/28 01:16:27;;;;;;;;;;;;;;;23.27;63.17;99549.16;7404489;19;1485;-58
2022/09/28 01:18:59;;;;;;;;;;;;;;;23.03;64.13;99544.97;7403968;19;1598;-58
2022/09/28 01:21:28;;;;;;;;;;;;;;;22.68;64.89;99543.94;7404020;19;1384;-58
2022/09/28 01:24:15;;;;;;;;;;;;;;;22.46;65.79;99557.34;7404902;19;1406;-58
2022/09/28 01:26:59;;;;;;;;;;;;;;;22.93;64.36;99556.03;7403265;19;1437;-58
2022/09/28 01:29:33;;;;;;;;;;;;;;;23.08;63.91;99560.56;7403768;19;1860;-59
2022/09/28 01:32:07;;;;;;;;;;;;;;;23.10;63.93;99570.16;7403935;19;1407;-58
2022/09/28 01:34:38;;;;;;;;;;;;;;;22.79;64.78;99573.09;7403718;19;1631;-58
2022/09/28 01:37:11;;;;;;;;;;;;;;;22.51;65.39;99559.50;7403329;19;1620;-58
2022/09/28 01:39:42;;;;;;;;;;;;;;;22.76;65.04;99570.75;7403872;19;1403;-58
2022/09/28 01:42:16;;;;;;;;;;;;;;;23.05;63.99;99569.88;7403765;19;1754;-58
2022/09/28 01:44:47;;;;;;;;;;;;;;;22.89;64.86;99573.63;7408782;19;1775;-58
2022/09/28 01:47:17;;;;;;;;;;;;;;;22.69;65.08;99573.38;7410452;19;1487;-58
2022/09/28 01:49:47;;;;;;;;;;;;;;;22.48;65.73;99576.84;7411024;19;1861;-58
2022/09/28 01:52:17;;;;;;;;;;;;;;;22.81;64.78;99582.66;7410954;19;1494;-58
2022/09/28 01:54:49;;;;;;;;;;;;;;;22.97;64.43;99580.75;7411766;19;1371;-59
2022/09/28 01:57:23;;;;;;;;;;;;;;;23.07;64.22;99565.13;7411071;19;1676;-58
2022/09/28 01:59:58;;;;;;;;;;;;;;;22.83;64.77;99574.38;7411006;19;1750;-59
2022/09/28 02:02:29;;;;;;;;;;;;;;;22.57;65.39;99575.72;7403461;19;1525;-59
2022/09/28 02:05:00;;;;;;;;;;;;;;;22.44;65.88;99589.03;7410562;19;1329;-59
2022/09/28 02:07:33;;;;;;;;;;;;;;;23.02;64.25;99589.16;7410480;19;1595;-59
2022/09/28 02:10:04;;;;;;;;;;;;;;;23.10;63.96;99586.34;7409393;19;1850;-59
2022/09/28 02:12:37;;;;;;;;;;;;;;;22.91;64.50;99595.84;7411082;19;1351;-59
2022/09/28 02:15:12;;;;;;;;;;;;;;;22.73;65.28;99606.19;7410715;19;1399;-59
2022/09/28 02:17:40;;;;;;;;;;;;;;;22.50;65.79;99596.38;7410489;19;1417;-59
2022/09/28 02:20:09;;;;;;;;;;;;;;;22.81;65.06;99608.78;7409473;19;1680;-59
2022/09/28 02:22:41;;;;;;;;;;;;;;;23.09;64.00;99606.22;7409572;19;1675;-59
2022/09/28 02:25:13;;;;;;;;;;;;;;;23.14;63.78;99600.25;7409337;19;1376;-59
2022/09/28 02:27:47;;;;;;;;;;;;;;;22.92;64.41;99589.44;7409477;19;1276;-59
2022/09/28 02:30:16;;;;;;;;;;;;;;;22.72;64.99;99601.81;7410043;19;1845;-59
2022/09/28 02:32:46;;;;;;;;;;;;;;;22.54;65.79;99594.13;7410565;19;1370;-59
2022/09/28 02:35:16;;;;;;;;;;;;;;;22.62;65.55;99592.19;7409238;19;1629;-59
2022/09/28 02:37:45;;;;;;;;;;;;;;;23.14;64.09;99608.34;7409583;19;1631;-59
2022/09/28 02:40:16;;;;;;;;;;;;;;;22.98;64.24;99615.63;7409161;19;1561;-59
2022/09/28 02:42:54;;;;;;;;;;;;;;;22.82;64.66;99615.84;7409188;19;1355;-59
2022/09/28 02:45:29;;;;;;;;;;;;;;;22.61;65.50;99620.13;7408957;19;1573;-59
2022/09/28 02:48:04;;;;;;;;;;;;;;;22.44;65.92;99619.50;7408987;19;1382;-59
2022/09/28 02:50:37;;;;;;;;;;;;;;;23.01;64.20;99625.19;7409376;19;1870;-59
2022/09/28 02:53:13;;;;;;;;;;;;;;;23.08;64.04;99612.66;7409527;19;1802;-59
2022/09/28 02:55:49;;;;;;;;;;;;;;;22.92;64.46;99629.00;7405281;19;1495;-59
2022/09/28 02:58:29;;;;;;;;;;;;;;;22.76;65.19;99627.34;7408441;19;1280;-59
2022/09/28 03:01:01;;;;;;;;;;;;;;;22.55;65.62;99636.22;7407732;19;1536;-59
2022/09/28 03:03:33;;;;;;;;;;;;;;;22.71;65.17;99630.63;7407493;19;1424;-60
2022/09/28 03:06:04;;;;;;;;;;;;;;;23.10;64.06;99644.81;7408306;19;1307;-60
2022/09/28 03:08:37;;;;;;;;;;;;;;;23.12;64.04;99643.59;7408804;19;1297;-59
2022/09/28 03:11:09;;;;;;;;;;;;;;;22.92;64.44;99648.75;7406254;19;1867;-60
2022/09/28 03:13:40;;;;;;;;;;;;;;;22.71;65.16;99638.72;7406469;19;1557;-59
2022/09/28 03:16:10;;;;;;;;;;;;;;;22.55;65.58;99652.38;7407967;19;1541;-59
2022/09/28 03:18:38;;;;;;;;;;;;;;;22.67;64.98;99650.88;7407891;19;1394;-59
2022/09/28 03:21:06;;;;;;;;;;;;;;;23.21;63.85;99664.03;7401333;19;1467;-59
2022/09/28 03:23:35;;;;;;;;;;;;;;;23.18;64.09;99663.59;7407875;19;1063;-58
2022/09/28 03:26:03;;;;;;;;;;;;;;;23.06;64.34;99659.69;7285022;19;15057;-59
2022/09/28 03:28:33;;;;;;;;;;;;;;;22.79;64.80;99657.47;7406254;19;1598;-59
2022/09/28 03:31:04;;;;;;;;;;;;;;;22.62;65.46;99659.53;7406934;19;1877;-59
2022/09/28 03:33:32;;;;;;;;;;;;;;;22.63;65.46;99655.81;7407015;19;1301;-59
2022/09/28 03:36:00;;;;;;;;;;;;;;;23.12;63.99;99667.88;7406289;19;1455;-59
2022/09/28 03:38:29;;;;;;;;;;;;;;;23.19;63.78;99654.47;7407853;19;1245;-59
2022/09/28 03:40:58;;;;;;;;;;;;;;;23.11;63.99;99651.88;7406261;19;1499;-60
2022/09/28 03:43:27;;;;;;;;;;;;;;;22.92;64.88;99664.06;7407704;19;1570;-60
2022/09/28 03:45:55;;;;;;;;;;;;;;;22.77;65.09;99669.47;7406875;19;1386;-60
2022/09/28 03:48:28;;;;;;;;;;;;;;;22.66;65.32;99665.41;7404605;19;1484;-60
2022/09/28 03:50:57;;;;;;;;;;;;;;;22.91;65.12;99678.56;7397871;19;1850;-57
2022/09/28 03:53:26;;;;;;;;;;;;;;;23.21;64.03;99674.00;7405658;19;1109;-58
2022/09/28 03:55:54;;;;;;;;;;;;;;;23.49;63.28;99654.38;7403848;19;1470;-58
2022/09/28 03:58:23;;;;;;;;;;;;;;;23.57;63.12;99667.72;7407789;19;1249;-58
2022/09/28 04:00:51;;;;;;;;;;;;;;;23.68;62.51;99669.94;7406437;19;1488;-59
2022/09/28 04:03:20;;;;;;;;;;;;;;;23.63;62.67;99653.47;7405120;19;1276;-58
2022/09/28 04:05:54;;;;;;;;;;;;;;;23.63;62.61;99653.47;7406948;19;1001;-58
2022/09/28 04:08:23;;;;;;;;;;;;;;;23.76;62.26;99661.69;7406565;19;1053;-57
2022/09/28 04:10:51;;;;;;;;;;;;;;;23.74;62.17;99671.84;7406628;19;1858;-58
2022/09/28 04:13:19;;;;;;;;;;;;;;;23.79;62.14;99680.22;7406397;19;1334;-58
2022/09/28 04:15:54;;;;;;;;;;;;;;;23.72;62.41;99675.78;7406050;19;1479;-58
2022/09/28 04:18:22;;;;;;;;;;;;;;;23.76;62.23;99677.88;7406339;19;1294;-58
2022/09/28 04:20:59;;;;;;;;;;;;;;;23.78;61.90;99678.56;7406972;19;1215;-58
2022/09/28 04:23:31;;;;;;;;;;;;;;;23.82;61.85;99681.72;7405626;19;1416;-58
2022/09/28 04:26:00;;;;;;;;;;;;;;;23.91;61.87;99658.94;7404760;19;1526;-59
2022/09/28 04:31:10;;;;;;;;;;;;;;;23.46;62.01;99670.94;7404737;19;1854;-59
2022/09/28 04:33:39;;;;;;;;;;;;;;;23.06;63.02;99665.09;7406408;19;1383;-58
2022/09/28 04:36:08;;;;;;;;;;;;;;;22.78;63.90;99658.50;7405269;19;1312;-58
2022/09/28 04:38:39;;;;;;;;;;;;;;;22.63;64.26;99666.59;7405868;19;1556;-57
2022/09/28 04:41:08;;;;;;;;;;;;;;;22.60;64.53;99680.44;7404851;19;1516;-57
2022/09/28 04:43:36;;;;;;;;;;;;;;;22.67;64.56;99677.84;7404529;19;1272;-58
2022/09/28 04:46:05;;;;;;;;;;;;;;;22.68;64.68;99674.13;7404482;19;1480;-58
2022/09/28 04:48:33;;;;;;;;;;;;;;;22.64;65.21;99680.88;7405031;19;1308;-58
2022/09/28 04:51:02;;;;;;;;;;;;;;;22.62;65.30;99699.97;7404377;19;1857;-59
2022/09/28 04:53:31;;;;;;;;;;;;;;;22.70;65.18;99698.19;7405461;19;1375;-60
2022/09/28 04:56:03;;;;;;;;;;;;;;;22.79;64.52;99702.47;7402402;19;1511;-58
2022/09/28 04:58:35;;;;;;;;;;;;;;;22.76;64.84;99697.44;7400704;19;1361;-60
2022/09/28 05:01:05;;;;;;;;;;;;;;;22.74;64.72;99694.94;7401975;19;1469;-57
2022/09/28 05:03:34;;;;;;;;;;;;;;;22.68;64.85;99689.44;7401995;19;1420;-59
2022/09/28 05:06:02;;;;;;;;;;;;;;;22.67;64.94;99709.34;7402806;19;1270;-59
2022/09/28 05:08:31;;;;;;;;;;;;;;;22.70;64.88;99677.47;7404128;19;1261;-60
2022/09/28 05:11:02;;;;;;;;;;;;;;;22.72;65.09;99688.91;7402189;19;1862;-58
2022/09/28 05:13:31;;;;;;;;;;;;;;;22.65;65.01;99682.56;7403225;19;1357;-59
2022/09/28 05:16:00;;;;;;;;;;;;;;;22.57;64.83;99667.34;7402391;19;1885;-59
2022/09/28 05:18:28;;;;;;;;;;;;;;;22.50;65.19;99685.28;7402604;19;1495;-59
2022/09/28 05:20:56;;;;;;;;;;;;;;;22.46;65.64;99692.03;7404454;19;1621;-57
2022/09/28 05:23:24;;;;;;;;;;;;;;;22.53;65.37;99692.97;7405559;19;1117;-57
2022/09/28 05:25:53;;;;;;;;;;;;;;;22.52;65.05;99691.31;7402542;19;1513;-57
2022/09/28 05:28:25;;;;;;;;;;;;;;;22.67;64.14;99688.63;7403580;19;1417;-57
2022/09/28 05:30:54;;;;;;;;;;;;;;;22.64;62.93;99695.22;7402306;19;1850;-57
2022/09/28 05:33:22;;;;;;;;;;;;;;;22.50;62.09;99698.75;7402784;19;1490;-58
2022/09/28 05:35:50;;;;;;;;;;;;;;;22.31;61.50;99708.19;7402707;19;1268;-65
2022/09/28 05:38:18;;;;;;;;;;;;;;;22.30;61.96;99702.97;7405330;19;1385;-58
2022/09/28 05:40:46;;;;;;;;;;;;;;;22.14;61.33;99699.38;7402729;19;1708;-58
2022/09/28 05:43:15;;;;;;;;;;;;;;;22.18;60.62;99707.94;7400505;19;1523;-58
2022/09/28 05:45:46;;;;;;;;;;;;;;;22.30;60.56;99692.22;7403930;19;1546;-58
2022/09/28 05:48:14;;;;;;;;;;;;;;;22.38;60.87;99705.59;7403096;19;1769;-59
2022/09/28 05:50:42;;;;;;;;;;;;;;;22.55;60.76;99698.19;7403858;19;1727;-59
2022/09/28 05:53:11;;;;;;;;;;;;;;;22.64;61.46;99707.84;7404913;19;1397;-59
2022/09/28 05:55:39;;;;;;;;;;;;;;;22.61;61.29;99706.34;7401130;19;1705;-58
2022/09/28 05:58:08;;;;;;;;;;;;;;;22.61;61.84;99703.66;7398665;19;1494;-58
2022/09/28 06:00:37;;;;;;;;;;;;;;;22.61;61.52;99711.75;7402054;19;1574;-59
2022/09/28 06:03:09;;;;;;;;;;;;;;;22.69;61.31;99713.53;7400445;19;1130;-58
2022/09/28 06:05:38;;;;;;;;;;;;;;;22.67;61.36;99704.78;7404427;19;1075;-59
2022/09/28 06:08:07;;;;;;;;;;;;;;;22.68;61.25;99719.09;7401895;19;1774;-58
2022/09/28 06:10:35;;;;;;;;;;;;;;;22.65;61.65;99709.53;7399164;19;1335;-59
2022/09/28 06:13:05;;;;;;;;;;;;;;;22.68;61.34;99711.00;7398674;19;1860;-59
2022/09/28 06:15:34;;;;;;;;;;;;;;;22.70;61.45;99736.78;7401898;19;1341;-59
2022/09/28 06:18:03;;;;;;;;;;;;;;;22.70;60.98;99722.44;7402203;19;1609;-59
2022/09/28 06:20:35;;;;;;;;;;;;;;;22.82;61.48;99723.66;7402793;19;1074;-59
2022/09/28 06:23:04;;;;;;;;;;;;;;;22.76;61.36;99729.78;7403400;19;922;-59
2022/09/28 06:25:32;;;;;;;;;;;;;;;22.76;61.36;99727.09;7400362;19;1476;-59
2022/09/28 06:28:01;;;;;;;;;;;;;;;22.78;61.35;99722.34;7402835;19;1543;-59
2022/09/28 06:30:30;;;;;;;;;;;;;;;22.84;61.16;99729.72;7407289;19;1129;-59
2022/09/28 06:32:59;;;;;;;;;;;;;;;22.80;61.19;99733.78;7405367;19;1856;-59
2022/09/28 06:35:29;;;;;;;;;;;;;;;22.76;61.37;99729.78;7410394;19;1542;-59
2022/09/28 06:38:00;;;;;;;;;;;;;;;22.72;61.04;99731.16;7410930;19;1017;-59
2022/09/28 06:40:29;;;;;;;;;;;;;;;22.74;61.19;99735.38;7407836;19;1370;-59
2022/09/28 06:42:57;;;;;;;;;;;;;;;22.75;60.98;99755.06;7408421;19;1372;-59
2022/09/28 06:45:26;;;;;;;;;;;;;;;22.73;61.28;99735.56;7409899;19;1644;-66
2022/09/28 06:47:55;;;;;;;;;;;;;;;22.72;61.03;99736.56;7410919;19;1613;-67
2022/09/28 06:50:23;;;;;;;;;;;;;;;22.68;60.91;99740.66;7410632;19;1009;-67
2022/09/28 06:52:53;;;;;;;;;;;;;;;22.68;60.95;99735.25;7407618;19;1852;-66
2022/09/28 06:55:24;;;;;;;;;;;;;;;22.72;60.90;99744.66;7406690;19;1490;-67
2022/09/28 06:57:59;;;;;;;;;;;;;;;22.73;60.70;99736.38;7409239;19;1559;-66
2022/09/28 07:00:28;;;;;;;;;;;;;;;22.73;60.61;99754.41;7410299;19;1189;-66
2022/09/28 07:02:56;;;;;;;;;;;;;;;22.72;60.29;99750.91;7407460;19;1539;-65
2022/09/28 07:05:26;;;;;;;;;;;;;;;22.74;60.33;99748.84;7409170;19;1709;-65
2022/09/28 07:07:54;;;;;;;;;;;;;;;22.80;59.95;99747.25;7408834;19;1704;-64
2022/09/28 07:10:26;;;;;;;;;;;;;;;22.87;59.57;99758.97;7409534;19;1624;-64
2022/09/28 07:12:55;;;;;;;;;;;;;;;22.80;59.60;99748.09;7406272;19;1842;-64
2022/09/28 07:15:23;;;;;;;;;;;;;;;22.82;59.63;99761.41;7409304;19;1439;-65
2022/09/28 07:17:52;;;;;;;;;;;;;;;22.77;58.88;99758.41;7409732;19;1059;-65
2022/09/28 07:20:20;;;;;;;;;;;;;;;22.76;58.69;99768.38;7408283;19;1009;-65
2022/09/28 07:22:49;;;;;;;;;;;;;;;22.70;58.95;99761.03;7406736;19;1496;-65
2022/09/28 07:25:17;;;;;;;;;;;;;;;22.69;58.72;99767.41;7402782;19;1720;-65
2022/09/28 07:27:48;;;;;;;;;;;;;;;22.68;58.52;99770.28;7407729;19;1542;-65
2022/09/28 07:30:17;;;;;;;;;;;;;;;22.67;58.90;99763.25;7406856;19;1336;-65
2022/09/28 07:32:47;;;;;;;;;;;;;;;22.64;58.68;99762.59;7406670;19;1853;-65
2022/09/28 07:35:15;;;;;;;;;;;;;;;22.64;58.21;99749.13;7406794;19;1783;-65
2022/09/28 07:37:43;;;;;;;;;;;;;;;22.72;58.19;99760.81;7406328;19;1735;-65
2022/09/28 07:42:55;;;;;;;;;;;;;;;22.74;57.76;99754.25;7405404;19;1558;-65
2022/09/28 07:45:24;;;;;;;;;;;;;;;22.71;57.84;99754.59;7406847;19;1598;-66
2022/09/28 07:47:56;;;;;;;;;;;;;;;22.71;58.57;99764.53;7407573;19;981;-66
2022/09/28 07:50:24;;;;;;;;;;;;;;;22.72;58.38;99760.81;7406650;19;996;-66
2022/09/28 07:52:52;;;;;;;;;;;;;;;22.73;58.00;99759.81;7405586;19;1857;-66
2022/09/28 07:55:20;;;;;;;;;;;;;;;22.76;58.06;99767.50;7402674;19;1691;-66
2022/09/28 07:57:48;;;;;;;;;;;;;;;22.73;58.25;99757.13;7406269;19;1628;-67
2022/09/28 08:00:20;;;;;;;;;;;;;;;22.73;58.14;99762.50;7406799;19;1107;-66
2022/09/28 08:02:48;;;;;;;;;;;;;;;22.77;57.57;99764.63;7403595;19;1602;-67
2022/09/28 08:05:16;;;;;;;;;;;;;;;22.79;57.22;99777.94;7403477;19;1382;-67
2022/09/28 08:07:44;;;;;;;;;;;;;;;22.77;57.40;99759.25;7403597;19;1716;-66
2022/09/28 08:10:13;;;;;;;;;;;;;;;22.79;57.73;99780.63;7404641;19;1510;-66
2022/09/28 08:12:41;;;;;;;;;;;;;;;22.76;57.56;99767.50;7404405;19;1865;-66
2022/09/28 08:15:10;;;;;;;;;;;;;;;22.76;57.27;99768.38;7406919;19;939;-65
2022/09/28 08:17:41;;;;;;;;;;;;;;;22.83;56.80;99784.63;7405305;19;1739;-66
2022/09/28 08:22:51;;;;;;;;;;;;;;;22.78;56.93;99770.84;7405200;19;1750;-66
2022/09/28 08:25:19;;;;;;;;;;;;;;;22.75;56.93;99776.63;7402283;19;1740;-66
2022/09/28 08:27:48;;;;;;;;;;;;;;;22.74;57.20;99753.38;7404951;19;1624;-65
2022/09/28 08:30:16;;;;;;;;;;;;;;;22.76;57.04;99768.38;7405029;19;1426;-65
2022/09/28 08:32:50;;;;;;;;;;;;;;;22.76;56.19;99767.50;7401479;19;1849;-64
2022/09/28 08:35:19;;;;;;;;;;;;;;;22.82;57.06;99761.41;7403730;19;1471;-71
2022/09/28 08:37:51;;;;;;;;;;;;;;;22.86;56.67;99762.72;7405473;19;1432;-66
2022/09/28 08:40:23;;;;;;;;;;;;;;;22.86;56.57;99772.63;7402790;19;1582;-64
2022/09/28 08:42:53;;;;;;;;;;;;;;;22.91;56.92;99764.84;7402986;19;1569;-65
2022/09/28 08:45:24;;;;;;;;;;;;;;;22.99;57.07;99767.44;7402977;19;1452;-66
2022/09/28 08:50:47;;;;;;;;;;;;;;;22.94;57.57;99759.91;7403492;19;1399;-66
2022/09/28 08:53:23;;;;;;;;;;;;;;;22.92;57.70;99751.19;7402386;19;1853;-67
2022/09/28 08:55:52;;;;;;;;;;;;;;;22.92;57.43;99750.31;7401817;19;1598;-66
2022/09/28 08:58:24;;;;;;;;;;;;;;;22.94;57.59;99765.31;7403231;19;1515;-66
2022/09/28 09:00:54;;;;;;;;;;;;;;;22.91;56.83;99744.09;7403352;19;1503;-66
2022/09/28 09:03:31;;;;;;;;;;;;;;;22.85;57.14;99739.47;7403175;19;1397;-66
2022/09/28 09:06:03;;;;;;;;;;;;;;;22.87;57.54;99737.41;7403420;19;1545;-66
2022/09/28 09:08:38;;;;;;;;;;;;;;;22.97;57.19;99742.53;7402214;19;1006;-66
2022/09/28 09:11:12;;;;;;;;;;;;;;;23.00;56.86;99726.00;7398243;19;1331;-66
2022/09/28 09:13:50;;;;;;;;;;;;;;;22.91;57.10;99754.06;7398575;19;1845;-66
2022/09/28 09:16:24;;;;;;;;;;;;;;;22.90;56.93;99737.06;7402464;19;1613;-66
2022/09/28 09:18:57;;;;;;;;;;;;;;;22.89;56.78;99721.06;7403416;19;1313;-66
2022/09/28 09:21:35;;;;;;;;;;;;;;;22.96;56.61;99730.91;7402105;19;1553;-66
2022/09/28 09:24:09;;;;;;;;;;;;;;;22.93;56.34;99741.22;7403340;19;1182;-66
2022/09/28 09:26:39;;;;;;;;;;;;;;;22.94;56.42;99743.75;7402719;19;1869;-65
2022/09/28 09:29:22;;;;;;;;;;;;;;;22.96;56.28;99759.72;7402395;19;1443;-65
2022/09/28 09:32:01;;;;;;;;;;;;;;;22.94;56.24;99754.53;7403872;19;1535;-66
2022/09/28 09:34:45;;;;;;;;;;;;;;;23.01;55.92;99751.91;7403200;19;1549;-66
2022/09/28 09:37:22;;;;;;;;;;;;;;;23.00;56.05;99751.09;7402630;19;1613;-66
2022/09/28 09:39:59;;;;;;;;;;;;;;;22.98;55.94;99755.81;7403956;19;950;-65
2022/09/28 09:42:38;;;;;;;;;;;;;;;22.87;56.14;99767.06;7403449;19;953;-65
2022/09/28 09:45:21;;;;;;;;;;;;;;;22.94;55.97;99765.31;7403621;19;968;-66
2022/09/28 09:47:51;;;;;;;;;;;;;;;22.97;55.80;99754.13;7403190;19;997;-66
2022/09/28 09:50:28;;;;;;;;;;;;;;;22.92;55.86;99750.31;7403255;19;1503;-65
2022/09/28 09:53:00;;;;;;;;;;;;;;;22.90;55.75;99764.00;7400896;19;1854;-65
2022/09/28 09:55:31;;;;;;;;;;;;;;;22.91;55.79;99757.59;7398916;19;1499;-65
2022/09/28 09:58:04;;;;;;;;;;;;;;;22.93;55.64;99760.09;7402494;19;1644;-66
2022/09/28 10:00:33;;;;;;;;;;;;;;;22.83;55.29;99763.06;7402251;19;1598;-65
2022/09/28 10:03:01;;;;;;;;;;;;;;;22.95;55.04;99769.66;7401081;19;1445;-66
2022/09/28 10:05:32;;;;;;;;;;;;;;;22.95;54.75;99760.75;7407102;19;1752;-66
2022/09/28 10:08:05;;;;;;;;;;;;;;;22.96;54.61;99755.19;7410113;19;1766;-66
2022/09/28 10:10:35;;;;;;;;;;;;;;;22.93;54.99;99747.44;7406587;19;1747;-66
2022/09/28 10:13:05;;;;;;;;;;;;;;;22.88;54.91;99736.41;7407783;19;1849;-66
2022/09/28 10:15:36;;;;;;;;;;;;;;;22.88;55.28;99747.19;7409190;19;1534;-66
2022/09/28 10:18:07;;;;;;;;;;;;;;;22.87;55.15;99747.38;7408887;19;1288;-66
2022/09/28 10:20:37;;;;;;;;;;;;;;;22.94;54.95;99759.91;7409420;19;1538;-66
2022/09/28 10:23:13;;;;;;;;;;;;;;;23.03;54.89;99752.59;7408933;19;1372;-65
2022/09/28 10:25:42;;;;;;;;;;;;;;;23.05;54.43;99738.94;7406374;19;1420;-66
2022/09/28 10:28:15;;;;;;;;;;;;;;;23.04;54.46;99756.97;7409436;19;1305;-64
2022/09/28 10:30:44;;;;;;;;;;;;;;;23.00;54.16;99742.16;7408383;19;1455;-65
2022/09/28 10:33:27;;;;;;;;;;;;;;;23.10;54.21;99747.28;7406045;19;1860;-63
2022/09/28 10:35:55;;;;;;;;;;;;;;;23.13;54.14;99763.09;7407220;19;1308;-67
2022/09/28 10:38:26;;;;;;;;;;;;;;;23.06;54.74;99759.47;7408291;19;1403;-64
2022/09/28 10:40:56;;;;;;;;;;;;;;;23.00;54.27;99743.00;7409173;19;1419;-66
2022/09/28 10:43:26;;;;;;;;;;;;;;;23.06;54.88;99748.69;7408130;19;1527;-65
2022/09/28 10:46:02;;;;;;;;;;;;;;;23.06;54.16;99754.94;7408112;19;1304;-72
2022/09/28 10:48:31;;;;;;;;;;;;;;;23.09;54.16;99746.44;7408555;19;1452;-64
2022/09/28 10:51:02;;;;;;;;;;;;;;;23.05;53.95;99760.50;7408468;19;1554;-64
2022/09/28 10:53:33;;;;;;;;;;;;;;;23.00;53.90;99748.38;7406989;19;1857;-67
2022/09/28 10:56:03;;;;;;;;;;;;;;;23.08;54.79;99754.72;7407867;19;1328;-66
2022/09/28 10:58:35;;;;;;;;;;;;;;;23.11;54.90;99747.09;7406848;19;1415;-62
2022/09/28 11:01:05;;;;;;;;;;;;;;;23.07;53.25;99748.50;7406909;19;1460;-65
2022/09/28 11:03:33;;;;;;;;;;;;;;;23.12;53.97;99750.63;7406459;19;1468;-67
2022/09/28 11:06:03;;;;;;;;;;;;;;;23.09;53.53;99746.44;7406575;19;1467;-68
2022/09/28 11:08:37;;;;;;;;;;;;;;;23.08;53.57;99750.19;7409048;19;1169;-62
2022/09/28 11:11:07;;;;;;;;;;;;;;;23.07;53.53;99739.56;7406393;19;1260;-73
2022/09/28 11:13:46;;;;;;;;;;;;;;;23.07;53.25;99726.91;7405377;19;1861;-65
2022/09/28 11:16:22;;;;;;;;;;;;;;;23.05;53.64;99730.84;7404370;19;1494;-65
2022/09/28 11:18:51;;;;;;;;;;;;;;;22.98;53.13;99731.56;7405899;19;1512;-70
2022/09/28 11:21:23;;;;;;;;;;;;;;;22.98;52.40;99720.78;7408702;19;1525;-70
2022/09/28 11:24:04;;;;;;;;;;;;;;;23.02;52.42;99730.19;7407812;19;1114;-64
2022/09/28 11:26:40;;;;;;;;;;;;;;;22.99;52.32;99725.13;7405767;19;1767;-65
2022/09/28 11:29:20;;;;;;;;;;;;;;;23.04;53.01;99727.31;7405679;19;1547;-64
2022/09/28 11:31:48;;;;;;;;;;;;;;;23.11;52.26;99716.59;7405653;19;1355;-64
2022/09/28 11:34:21;;;;;;;;;;;;;;;23.08;52.44;99716.97;7403473;19;1853;-64
2022/09/28 11:36:58;;;;;;;;;;;;;;;23.12;51.18;99702.06;7406760;19;1385;-65
2022/09/28 11:39:35;;;;;;;;;;;;;;;23.13;51.51;99714.56;7405663;19;1296;-64
2022/09/28 11:42:11;;;;;;;;;;;;;;;23.14;51.87;99714.38;7406596;19;1573;-65
2022/09/28 11:44:45;;;;;;;;;;;;;;;23.16;52.29;99711.50;7405785;19;1697;-65
2022/09/28 11:47:28;;;;;;;;;;;;;;;23.14;52.13;99710.81;7406510;19;1562;-65
2022/09/28 11:50:02;;;;;;;;;;;;;;;23.11;52.36;99705.81;7405656;19;1745;-65
2022/09/28 11:52:36;;;;;;;;;;;;;;;23.09;52.47;99697.91;7406037;19;1397;-65
2022/09/28 11:55:13;;;;;;;;;;;;;;;23.16;52.02;99709.63;7403743;19;1834;-64
2022/09/28 11:57:44;;;;;;;;;;;;;;;23.22;51.80;99702.66;7406196;19;1566;-64
2022/09/28 12:00:15;;;;;;;;;;;;;;;23.24;51.85;99697.91;7405737;19;1379;-65
2022/09/28 12:02:47;;;;;;;;;;;;;;;23.27;51.47;99694.81;7403419;19;1550;-65
2022/09/28 12:05:17;;;;;;;;;;;;;;;23.21;51.98;99703.66;7405369;19;1692;-65
2022/09/28 12:07:48;;;;;;;;;;;;;;;23.17;52.05;99703.19;7404993;19;1649;-65
2022/09/28 12:10:22;;;;;;;;;;;;;;;23.25;51.45;99713.03;7405387;19;1252;-65
2022/09/28 12:12:55;;;;;;;;;;;;;;;23.17;52.06;99707.75;7405976;19;1854;-64
2022/09/28 12:15:25;;;;;;;;;;;;;;;23.19;51.79;99692.22;7405638;19;1345;-65
2022/09/28 12:17:55;;;;;;;;;;;;;;;23.17;51.88;99705.06;7405896;19;976;-65
2022/09/28 12:20:25;;;;;;;;;;;;;;;23.12;52.42;99699.38;7407405;19;1018;-65
2022/09/28 12:23:02;;;;;;;;;;;;;;;23.11;51.67;99697.72;7405410;19;1687;-65
2022/09/28 12:25:36;;;;;;;;;;;;;;;23.12;51.02;99704.78;7404419;19;1389;-65
2022/09/28 12:28:07;;;;;;;;;;;;;;;23.09;50.50;99684.44;7404274;19;1347;-65
2022/09/28 12:30:39;;;;;;;;;;;;;;;23.12;50.47;99686.75;7405063;19;1392;-65
2022/09/28 12:33:11;;;;;;;;;;;;;;;23.09;51.65;99686.28;7405277;19;1844;-65
2022/09/28 12:35:46;;;;;;;;;;;;;;;23.09;51.95;99681.72;7404411;19;1256;-65
2022/09/28 12:38:35;;;;;;;;;;;;;;;23.07;51.34;99680.25;7406054;19;1363;-66
2022/09/28 12:41:15;;;;;;;;;;;;;;;23.13;50.50;99672.22;7401618;19;1313;-68
2022/09/28 12:43:55;;;;;;;;;;;;;;;23.21;50.09;99690.16;7403148;19;1493;-66
2022/09/28 12:46:38;;;;;;;;;;;;;;;23.17;51.05;99695.09;7401900;19;1475;-63
2022/09/28 12:49:37;;;;;;;;;;;;;;;23.18;50.90;99675.22;7400952;19;1793;-65
2022/09/28 12:52:10;;;;;;;;;;;;;;;23.32;51.49;99669.97;7397130;19;1259;-64
2022/09/28 12:54:50;;;;;;;;;;;;;;;23.27;51.77;99669.69;7401503;19;1873;-67
2022/09/28 12:57:32;;;;;;;;;;;;;;;23.32;51.04;99673.50;7403861;19;1649;-65
2022/09/28 13:00:03;;;;;;;;;;;;;;;23.29;51.73;99668.47;7402622;19;1714;-64
2022/09/28 13:02:51;;;;;;;;;;;;;;;23.29;51.39;99671.16;7400154;19;1774;-66
2022/09/28 13:05:25;;;;;;;;;;;;;;;23.20;52.00;99669.63;7402048;19;1272;-64
2022/09/28 13:07:58;;;;;;;;;;;;;;;23.25;52.12;99675.28;7401867;19;1793;-64
2022/09/28 13:10:32;;;;;;;;;;;;;;;23.25;51.75;99680.66;7401669;19;1269;-67
2022/09/28 13:13:13;;;;;;;;;;;;;;;23.23;52.02;99678.16;7402643;19;1538;-65
2022/09/28 13:15:44;;;;;;;;;;;;;;;23.21;51.88;99666.72;7403433;19;1423;-65
2022/09/28 13:18:16;;;;;;;;;;;;;;;23.20;52.17;99683.13;7399499;19;1448;-66
2022/09/28 13:20:53;;;;;;;;;;;;;;;23.14;52.40;99700.03;7402063;19;1269;-63
2022/09/28 13:23:23;;;;;;;;;;;;;;;23.13;52.51;99692.97;7403178;19;1428;-65
2022/09/28 13:25:54;;;;;;;;;;;;;;;23.16;52.83;99698.00;7401871;19;1456;-63
2022/09/28 13:28:27;;;;;;;;;;;;;;;23.17;53.04;99689.72;7401068;19;1260;-64
2022/09/28 13:30:56;;;;;;;;;;;;;;;23.12;53.38;99691.28;7400658;19;1508;-63